sensor_id;sensor_type;location;lat;lon;timestamp;temperature;humidity
16976;DHT22;8604;48.148;-1.786;2023-11-21T00:00:09;11.50;99.90
16976;DHT22;8604;48.148;-1.786;2023-11-21T00:02:47;11.50;99.90
16976;DHT22;8604;48.148;-1.786;2023-11-21T00:05:15;11.50;99.90
16976;DHT22;8604;48.148;-1.786;2023-11-21T00:07:44;11.50;99.90
16976;DHT22;8604;48.148;-1.786;2023-11-21T00:10:13;11.50;99.90
16976;DHT22;8604;48.148;-1.786;2023-11-21T00:12:43;11.50;99.90
16976;DHT22;8604;48.148;-1.786;2023-11-21T00:15:15;11.50;99.90
16976;DHT22;8604;48.148;-1.786;2023-11-21T00:17:47;11.50;99.90
16976;DHT22;8604;48.148;-1.786;2023-11-21T00:20:17;11.50;99.90
16976;DHT22;8604;48.148;-1.786;2023-11-21T00:22:46;11.50;99.90
16976;DHT22;8604;48.148;-1.786;2023-11-21T00:25:15;11.50;99.90
16976;DHT22;8604;48.148;-1.786;2023-11-21T00:27:47;11.50;99.90
16976;DHT22;8604;48.148;-1.786;2023-11-21T00:30:16;11.50;99.90
16976;DHT22;8604;48.148;-1.786;2023-11-21T00:32:47;11.40;99.90
16976;DHT22;8604;48.148;-1.786;2023-11-21T00:35:16;11.30;99.90
16976;DHT22;8604;48.148;-1.786;2023-11-21T00:37:44;11.30;99.90
16976;DHT22;8604;48.148;-1.786;2023-11-21T00:40:13;11.30;99.90
16976;DHT22;8604;48.148;-1.786;2023-11-21T00:42:42;11.30;99.90
16976;DHT22;8604;48.148;-1.786;2023-11-21T00:45:11;11.30;99.90
16976;DHT22;8604;48.148;-1.786;2023-11-21T00:47:39;11.20;99.90
16976;DHT22;8604;48.148;-1.786;2023-11-21T00:50:09;11.20;99.90
16976;DHT22;8604;48.148;-1.786;2023-11-21T00:52:38;11.20;99.90
16976;DHT22;8604;48.148;-1.786;2023-11-21T00:55:07;11.20;99.90
16976;DHT22;8604;48.148;-1.786;2023-11-21T00:57:35;11.10;99.90
16976;DHT22;8604;48.148;-1.786;2023-11-21T01:00:05;11.20;99.90
16976;DHT22;8604;48.148;-1.786;2023-11-21T01:02:40;11.10;99.90
16976;DHT22;8604;48.148;-1.786;2023-11-21T01:05:10;11.10;99.90
16976;DHT22;8604;48.148;-1.786;2023-11-21T01:07:40;11.10;99.90
16976;DHT22;8604;48.148;-1.786;2023-11-21T01:10:08;11.10;99.90
16976;DHT22;8604;48.148;-1.786;2023-11-21T01:12:38;11.10;99.90
16976;DHT22;8604;48.148;-1.786;2023-11-21T01:15:07;11.00;99.90
16976;DHT22;8604;48.148;-1.786;2023-11-21T01:17:36;11.00;99.90
16976;DHT22;8604;48.148;-1.786;2023-11-21T01:20:06;11.00;99.90
16976;DHT22;8604;48.148;-1.786;2023-11-21T01:22:41;11.00;99.90
16976;DHT22;8604;48.148;-1.786;2023-11-21T01:25:10;10.90;99.90
16976;DHT22;8604;48.148;-1.786;2023-11-21T01:27:38;10.90;99.90
16976;DHT22;8604;48.148;-1.786;2023-11-21T01:30:08;10.90;99.90
16976;DHT22;8604;48.148;-1.786;2023-11-21T01:32:37;10.90;99.90
16976;DHT22;8604;48.148;-1.786;2023-11-21T01:35:07;10.90;99.90
16976;DHT22;8604;48.148;-1.786;2023-11-21T01:37:37;10.90;99.90
16976;DHT22;8604;48.148;-1.786;2023-11-21T01:40:08;10.90;99.90
16976;DHT22;8604;48.148;-1.786;2023-11-21T01:42:42;10.90;99.90
16976;DHT22;8604;48.148;-1.786;2023-11-21T01:45:12;10.90;99.90
16976;DHT22;8604;48.148;-1.786;2023-11-21T01:47:41;10.90;99.90
16976;DHT22;8604;48.148;-1.786;2023-11-21T01:50:14;10.90;99.90
16976;DHT22;8604;48.148;-1.786;2023-11-21T01:52:46;10.90;99.90
16976;DHT22;8604;48.148;-1.786;2023-11-21T01:55:17;10.80;99.90
16976;DHT22;8604;48.148;-1.786;2023-11-21T01:57:55;10.80;99.90
16976;DHT22;8604;48.148;-1.786;2023-11-21T02:00:25;10.80;99.90
16976;DHT22;8604;48.148;-1.786;2023-11-21T02:02:56;10.80;99.90
16976;DHT22;8604;48.148;-1.786;2023-11-21T02:05:25;10.80;99.90
16976;DHT22;8604;48.148;-1.786;2023-11-21T02:07:53;10.90;99.90
16976;DHT22;8604;48.148;-1.786;2023-11-21T02:10:23;10.90;99.90
16976;DHT22;8604;48.148;-1.786;2023-11-21T02:12:52;10.80;99.90
16976;DHT22;8604;48.148;-1.786;2023-11-21T02:15:21;10.90;99.90
16976;DHT22;8604;48.148;-1.786;2023-11-21T02:17:54;10.90;99.90
16976;DHT22;8604;48.148;-1.786;2023-11-21T02:20:25;10.90;99.90
16976;DHT22;8604;48.148;-1.786;2023-11-21T02:22:58;10.90;99.90
16976;DHT22;8604;48.148;-1.786;2023-11-21T02:25:46;10.80;99.90
16976;DHT22;8604;48.148;-1.786;2023-11-21T02:28:16;10.80;99.90
16976;DHT22;8604;48.148;-1.786;2023-11-21T02:30:52;10.80;99.90
16976;DHT22;8604;48.148;-1.786;2023-11-21T02:33:22;10.80;99.90
16976;DHT22;8604;48.148;-1.786;2023-11-21T02:35:52;10.70;99.90
16976;DHT22;8604;48.148;-1.786;2023-11-21T02:38:23;10.80;99.90
16976;DHT22;8604;48.148;-1.786;2023-11-21T02:40:52;10.80;99.90
16976;DHT22;8604;48.148;-1.786;2023-11-21T02:43:20;10.70;99.90
16976;DHT22;8604;48.148;-1.786;2023-11-21T02:45:49;10.80;99.90
16976;DHT22;8604;48.148;-1.786;2023-11-21T02:48:20;10.80;99.90
16976;DHT22;8604;48.148;-1.786;2023-11-21T02:50:51;10.80;99.90
16976;DHT22;8604;48.148;-1.786;2023-11-21T02:53:20;10.80;99.90
16976;DHT22;8604;48.148;-1.786;2023-11-21T02:55:50;10.80;99.90
16976;DHT22;8604;48.148;-1.786;2023-11-21T02:58:19;10.80;99.90
16976;DHT22;8604;48.148;-1.786;2023-11-21T03:00:47;10.80;99.90
16976;DHT22;8604;48.148;-1.786;2023-11-21T03:03:15;10.90;99.90
16976;DHT22;8604;48.148;-1.786;2023-11-21T03:05:44;10.90;99.90
16976;DHT22;8604;48.148;-1.786;2023-11-21T03:08:12;10.90;99.90
16976;DHT22;8604;48.148;-1.786;2023-11-21T03:10:41;10.90;99.90
16976;DHT22;8604;48.148;-1.786;2023-11-21T03:13:11;10.90;99.90
16976;DHT22;8604;48.148;-1.786;2023-11-21T03:15:40;10.90;99.90
16976;DHT22;8604;48.148;-1.786;2023-11-21T03:18:09;10.90;99.90
16976;DHT22;8604;48.148;-1.786;2023-11-21T03:20:38;10.90;99.90
16976;DHT22;8604;48.148;-1.786;2023-11-21T03:23:06;10.90;99.90
16976;DHT22;8604;48.148;-1.786;2023-11-21T03:25:35;10.90;99.90
16976;DHT22;8604;48.148;-1.786;2023-11-21T03:28:04;10.90;99.90
16976;DHT22;8604;48.148;-1.786;2023-11-21T03:30:34;10.90;99.90
16976;DHT22;8604;48.148;-1.786;2023-11-21T03:33:03;10.90;99.90
16976;DHT22;8604;48.148;-1.786;2023-11-21T03:35:31;10.90;99.90
16976;DHT22;8604;48.148;-1.786;2023-11-21T03:38:00;10.90;99.90
16976;DHT22;8604;48.148;-1.786;2023-11-21T03:40:29;10.90;99.90
16976;DHT22;8604;48.148;-1.786;2023-11-21T03:42:58;10.90;99.90
16976;DHT22;8604;48.148;-1.786;2023-11-21T03:45:26;10.90;99.90
16976;DHT22;8604;48.148;-1.786;2023-11-21T03:47:56;10.90;99.90
16976;DHT22;8604;48.148;-1.786;2023-11-21T03:50:24;10.90;99.90
16976;DHT22;8604;48.148;-1.786;2023-11-21T03:52:52;10.90;99.90
16976;DHT22;8604;48.148;-1.786;2023-11-21T03:55:21;10.90;99.90
16976;DHT22;8604;48.148;-1.786;2023-11-21T03:57:50;10.80;99.90
16976;DHT22;8604;48.148;-1.786;2023-11-21T04:00:19;10.80;99.90
16976;DHT22;8604;48.148;-1.786;2023-11-21T04:02:48;10.80;99.90
16976;DHT22;8604;48.148;-1.786;2023-11-21T04:05:20;10.70;99.90
16976;DHT22;8604;48.148;-1.786;2023-11-21T04:07:51;10.70;99.90
16976;DHT22;8604;48.148;-1.786;2023-11-21T04:10:20;10.70;99.90
16976;DHT22;8604;48.148;-1.786;2023-11-21T04:12:49;10.70;99.90
16976;DHT22;8604;48.148;-1.786;2023-11-21T04:15:17;10.70;99.90
16976;DHT22;8604;48.148;-1.786;2023-11-21T04:17:47;10.70;99.90
16976;DHT22;8604;48.148;-1.786;2023-11-21T04:20:15;10.60;99.90
16976;DHT22;8604;48.148;-1.786;2023-11-21T04:22:45;10.60;99.90
16976;DHT22;8604;48.148;-1.786;2023-11-21T04:25:14;10.60;99.90
16976;DHT22;8604;48.148;-1.786;2023-11-21T04:27:44;10.60;99.90
16976;DHT22;8604;48.148;-1.786;2023-11-21T04:30:13;10.60;99.90
16976;DHT22;8604;48.148;-1.786;2023-11-21T04:32:42;10.60;99.90
16976;DHT22;8604;48.148;-1.786;2023-11-21T04:35:11;10.60;99.90
16976;DHT22;8604;48.148;-1.786;2023-11-21T04:37:39;10.60;99.90
16976;DHT22;8604;48.148;-1.786;2023-11-21T04:40:10;10.60;99.90
16976;DHT22;8604;48.148;-1.786;2023-11-21T04:42:39;10.60;99.90
16976;DHT22;8604;48.148;-1.786;2023-11-21T04:45:08;10.60;99.90
16976;DHT22;8604;48.148;-1.786;2023-11-21T04:47:39;10.60;99.90
16976;DHT22;8604;48.148;-1.786;2023-11-21T04:50:08;10.60;99.90
16976;DHT22;8604;48.148;-1.786;2023-11-21T04:52:36;10.60;99.90
16976;DHT22;8604;48.148;-1.786;2023-11-21T04:55:05;10.60;99.90
16976;DHT22;8604;48.148;-1.786;2023-11-21T04:57:39;10.60;99.90
16976;DHT22;8604;48.148;-1.786;2023-11-21T05:00:10;10.60;99.90
16976;DHT22;8604;48.148;-1.786;2023-11-21T05:02:40;10.50;99.90
16976;DHT22;8604;48.148;-1.786;2023-11-21T05:05:09;10.50;99.90
16976;DHT22;8604;48.148;-1.786;2023-11-21T05:07:38;10.50;99.90
16976;DHT22;8604;48.148;-1.786;2023-11-21T05:10:08;10.50;99.90
16976;DHT22;8604;48.148;-1.786;2023-11-21T05:12:40;10.50;99.90
16976;DHT22;8604;48.148;-1.786;2023-11-21T05:15:10;10.50;99.90
16976;DHT22;8604;48.148;-1.786;2023-11-21T05:17:40;10.50;99.90
16976;DHT22;8604;48.148;-1.786;2023-11-21T05:20:11;10.50;99.90
16976;DHT22;8604;48.148;-1.786;2023-11-21T05:22:41;10.50;99.90
16976;DHT22;8604;48.148;-1.786;2023-11-21T05:25:10;10.50;99.90
16976;DHT22;8604;48.148;-1.786;2023-11-21T05:27:40;10.50;99.90
16976;DHT22;8604;48.148;-1.786;2023-11-21T05:30:09;10.40;99.90
16976;DHT22;8604;48.148;-1.786;2023-11-21T05:32:39;10.40;99.90
16976;DHT22;8604;48.148;-1.786;2023-11-21T05:35:09;10.40;99.90
16976;DHT22;8604;48.148;-1.786;2023-11-21T05:37:42;10.40;99.90
16976;DHT22;8604;48.148;-1.786;2023-11-21T05:40:11;10.40;99.90
16976;DHT22;8604;48.148;-1.786;2023-11-21T05:42:41;10.40;99.90
16976;DHT22;8604;48.148;-1.786;2023-11-21T05:45:10;10.40;99.90
16976;DHT22;8604;48.148;-1.786;2023-11-21T05:47:41;10.40;99.90
16976;DHT22;8604;48.148;-1.786;2023-11-21T05:50:11;10.40;99.90
16976;DHT22;8604;48.148;-1.786;2023-11-21T05:53:00;10.30;99.90
16976;DHT22;8604;48.148;-1.786;2023-11-21T05:55:28;10.30;99.90
16976;DHT22;8604;48.148;-1.786;2023-11-21T05:57:58;10.40;99.90
16976;DHT22;8604;48.148;-1.786;2023-11-21T06:00:27;10.30;99.90
16976;DHT22;8604;48.148;-1.786;2023-11-21T06:02:55;10.40;99.90
16976;DHT22;8604;48.148;-1.786;2023-11-21T06:05:25;10.40;99.90
16976;DHT22;8604;48.148;-1.786;2023-11-21T06:07:55;10.40;99.90
16976;DHT22;8604;48.148;-1.786;2023-11-21T06:10:26;10.40;99.90
16976;DHT22;8604;48.148;-1.786;2023-11-21T06:12:56;10.40;99.90
16976;DHT22;8604;48.148;-1.786;2023-11-21T06:15:30;10.50;99.90
16976;DHT22;8604;48.148;-1.786;2023-11-21T06:18:00;10.40;99.90
16976;DHT22;8604;48.148;-1.786;2023-11-21T06:20:30;10.40;99.90
16976;DHT22;8604;48.148;-1.786;2023-11-21T06:22:59;10.40;99.90
16976;DHT22;8604;48.148;-1.786;2023-11-21T06:25:31;10.40;99.90
16976;DHT22;8604;48.148;-1.786;2023-11-21T06:28:00;10.40;99.90
16976;DHT22;8604;48.148;-1.786;2023-11-21T06:30:30;10.40;99.90
16976;DHT22;8604;48.148;-1.786;2023-11-21T06:32:59;10.40;99.90
16976;DHT22;8604;48.148;-1.786;2023-11-21T06:35:28;10.30;99.90
16976;DHT22;8604;48.148;-1.786;2023-11-21T06:37:57;10.40;99.90
16976;DHT22;8604;48.148;-1.786;2023-11-21T06:40:26;10.40;99.90
16976;DHT22;8604;48.148;-1.786;2023-11-21T06:42:54;10.40;99.90
16976;DHT22;8604;48.148;-1.786;2023-11-21T06:45:22;10.30;99.90
16976;DHT22;8604;48.148;-1.786;2023-11-21T06:51:51;10.30;99.90
16976;DHT22;8604;48.148;-1.786;2023-11-21T06:54:46;10.30;99.90
16976;DHT22;8604;48.148;-1.786;2023-11-21T06:57:47;10.20;99.90
16976;DHT22;8604;48.148;-1.786;2023-11-21T07:00:41;10.20;99.90
16976;DHT22;8604;48.148;-1.786;2023-11-21T07:03:28;10.20;99.90
16976;DHT22;8604;48.148;-1.786;2023-11-21T07:06:10;10.20;99.90
16976;DHT22;8604;48.148;-1.786;2023-11-21T07:08:51;10.10;99.90
16976;DHT22;8604;48.148;-1.786;2023-11-21T07:11:41;10.10;99.90
16976;DHT22;8604;48.148;-1.786;2023-11-21T07:14:40;10.10;99.90
16976;DHT22;8604;48.148;-1.786;2023-11-21T07:17:47;10.00;99.90
16976;DHT22;8604;48.148;-1.786;2023-11-21T07:20:20;10.00;99.90
16976;DHT22;8604;48.148;-1.786;2023-11-21T07:23:34;9.90;99.90
16976;DHT22;8604;48.148;-1.786;2023-11-21T07:26:20;9.90;99.90
16976;DHT22;8604;48.148;-1.786;2023-11-21T07:29:08;9.90;99.90
16976;DHT22;8604;48.148;-1.786;2023-11-21T07:32:40;9.90;99.90
16976;DHT22;8604;48.148;-1.786;2023-11-21T07:35:38;9.90;99.90
16976;DHT22;8604;48.148;-1.786;2023-11-21T07:38:09;9.90;99.90
16976;DHT22;8604;48.148;-1.786;2023-11-21T07:41:11;9.90;99.90
16976;DHT22;8604;48.148;-1.786;2023-11-21T07:44:00;10.00;99.90
16976;DHT22;8604;48.148;-1.786;2023-11-21T07:46:39;10.00;99.90
16976;DHT22;8604;48.148;-1.786;2023-11-21T07:49:28;10.00;99.90
16976;DHT22;8604;48.148;-1.786;2023-11-21T07:51:56;10.00;99.90
16976;DHT22;8604;48.148;-1.786;2023-11-21T07:54:27;10.10;99.90
16976;DHT22;8604;48.148;-1.786;2023-11-21T07:56:55;10.00;99.90
16976;DHT22;8604;48.148;-1.786;2023-11-21T07:59:26;10.00;99.90
16976;DHT22;8604;48.148;-1.786;2023-11-21T08:01:55;10.10;99.90
16976;DHT22;8604;48.148;-1.786;2023-11-21T08:04:23;10.10;99.90
16976;DHT22;8604;48.148;-1.786;2023-11-21T08:06:52;10.10;99.90
16976;DHT22;8604;48.148;-1.786;2023-11-21T08:09:20;10.10;99.90
16976;DHT22;8604;48.148;-1.786;2023-11-21T08:11:51;10.10;99.90
16976;DHT22;8604;48.148;-1.786;2023-11-21T08:14:20;10.10;99.90
16976;DHT22;8604;48.148;-1.786;2023-11-21T08:16:50;10.10;99.90
16976;DHT22;8604;48.148;-1.786;2023-11-21T08:19:19;10.10;99.90
16976;DHT22;8604;48.148;-1.786;2023-11-21T08:21:48;10.10;99.90
16976;DHT22;8604;48.148;-1.786;2023-11-21T08:24:16;10.10;99.90
16976;DHT22;8604;48.148;-1.786;2023-11-21T08:26:45;10.10;99.90
16976;DHT22;8604;48.148;-1.786;2023-11-21T08:29:13;10.10;99.90
16976;DHT22;8604;48.148;-1.786;2023-11-21T08:31:42;10.10;99.90
16976;DHT22;8604;48.148;-1.786;2023-11-21T08:34:13;10.10;99.90
16976;DHT22;8604;48.148;-1.786;2023-11-21T08:36:43;10.10;99.90
16976;DHT22;8604;48.148;-1.786;2023-11-21T08:39:10;10.20;99.90
16976;DHT22;8604;48.148;-1.786;2023-11-21T08:41:40;10.20;99.90
16976;DHT22;8604;48.148;-1.786;2023-11-21T08:44:09;10.20;99.90
16976;DHT22;8604;48.148;-1.786;2023-11-21T08:46:38;10.10;99.90
16976;DHT22;8604;48.148;-1.786;2023-11-21T08:49:08;10.20;99.90
16976;DHT22;8604;48.148;-1.786;2023-11-21T08:51:39;10.20;99.90
16976;DHT22;8604;48.148;-1.786;2023-11-21T08:54:08;10.20;99.90
16976;DHT22;8604;48.148;-1.786;2023-11-21T08:56:39;10.40;99.90
16976;DHT22;8604;48.148;-1.786;2023-11-21T08:59:08;10.50;99.90
16976;DHT22;8604;48.148;-1.786;2023-11-21T09:01:37;10.70;99.90
16976;DHT22;8604;48.148;-1.786;2023-11-21T09:04:05;10.90;99.90
16976;DHT22;8604;48.148;-1.786;2023-11-21T09:06:34;11.00;99.90
16976;DHT22;8604;48.148;-1.786;2023-11-21T09:09:04;11.00;99.90
16976;DHT22;8604;48.148;-1.786;2023-11-21T09:11:33;11.00;99.90
16976;DHT22;8604;48.148;-1.786;2023-11-21T09:14:02;11.00;99.90
16976;DHT22;8604;48.148;-1.786;2023-11-21T09:16:31;11.10;99.90
16976;DHT22;8604;48.148;-1.786;2023-11-21T09:19:00;11.20;99.90
16976;DHT22;8604;48.148;-1.786;2023-11-21T09:21:32;11.20;99.90
16976;DHT22;8604;48.148;-1.786;2023-11-21T09:24:01;11.20;99.90
16976;DHT22;8604;48.148;-1.786;2023-11-21T09:26:32;11.20;99.90
16976;DHT22;8604;48.148;-1.786;2023-11-21T09:29:01;11.20;99.90
16976;DHT22;8604;48.148;-1.786;2023-11-21T09:31:30;11.20;99.90
16976;DHT22;8604;48.148;-1.786;2023-11-21T09:34:01;11.20;99.90
16976;DHT22;8604;48.148;-1.786;2023-11-21T09:36:30;11.30;99.90
16976;DHT22;8604;48.148;-1.786;2023-11-21T09:39:00;11.30;99.90
16976;DHT22;8604;48.148;-1.786;2023-11-21T09:41:33;11.40;99.90
16976;DHT22;8604;48.148;-1.786;2023-11-21T09:44:07;11.50;99.90
16976;DHT22;8604;48.148;-1.786;2023-11-21T09:46:40;11.50;99.90
16976;DHT22;8604;48.148;-1.786;2023-11-21T09:49:10;11.60;99.90
16976;DHT22;8604;48.148;-1.786;2023-11-21T09:51:42;11.60;99.90
16976;DHT22;8604;48.148;-1.786;2023-11-21T09:54:11;11.70;99.90
16976;DHT22;8604;48.148;-1.786;2023-11-21T09:56:42;11.80;99.90
16976;DHT22;8604;48.148;-1.786;2023-11-21T09:59:14;11.90;99.90
16976;DHT22;8604;48.148;-1.786;2023-11-21T10:01:43;11.90;99.90
16976;DHT22;8604;48.148;-1.786;2023-11-21T10:04:13;12.00;99.90
16976;DHT22;8604;48.148;-1.786;2023-11-21T10:06:43;12.00;99.90
16976;DHT22;8604;48.148;-1.786;2023-11-21T10:09:14;12.00;99.90
16976;DHT22;8604;48.148;-1.786;2023-11-21T10:11:45;12.00;99.90
16976;DHT22;8604;48.148;-1.786;2023-11-21T10:14:14;12.10;99.90
16976;DHT22;8604;48.148;-1.786;2023-11-21T10:16:49;12.10;99.90
16976;DHT22;8604;48.148;-1.786;2023-11-21T10:19:19;12.20;99.90
16976;DHT22;8604;48.148;-1.786;2023-11-21T10:21:49;12.20;99.90
16976;DHT22;8604;48.148;-1.786;2023-11-21T10:24:19;12.30;99.90
16976;DHT22;8604;48.148;-1.786;2023-11-21T10:26:49;12.30;99.90
16976;DHT22;8604;48.148;-1.786;2023-11-21T10:29:20;12.30;99.90
16976;DHT22;8604;48.148;-1.786;2023-11-21T10:31:50;12.30;99.90
16976;DHT22;8604;48.148;-1.786;2023-11-21T10:34:21;12.20;99.90
16976;DHT22;8604;48.148;-1.786;2023-11-21T10:36:50;12.20;99.90
16976;DHT22;8604;48.148;-1.786;2023-11-21T10:39:19;12.20;99.90
16976;DHT22;8604;48.148;-1.786;2023-11-21T10:41:52;12.20;99.90
16976;DHT22;8604;48.148;-1.786;2023-11-21T10:44:22;12.20;99.90
16976;DHT22;8604;48.148;-1.786;2023-11-21T10:46:53;12.10;99.90
16976;DHT22;8604;48.148;-1.786;2023-11-21T10:49:25;12.20;99.90
16976;DHT22;8604;48.148;-1.786;2023-11-21T10:51:55;12.20;99.90
16976;DHT22;8604;48.148;-1.786;2023-11-21T10:54:26;12.20;99.90
16976;DHT22;8604;48.148;-1.786;2023-11-21T10:56:59;12.30;99.90
16976;DHT22;8604;48.148;-1.786;2023-11-21T10:59:30;12.30;99.90
16976;DHT22;8604;48.148;-1.786;2023-11-21T11:02:01;12.30;99.90
16976;DHT22;8604;48.148;-1.786;2023-11-21T11:04:36;12.30;99.90
16976;DHT22;8604;48.148;-1.786;2023-11-21T11:07:08;12.40;99.90
16976;DHT22;8604;48.148;-1.786;2023-11-21T11:09:40;12.40;99.90
16976;DHT22;8604;48.148;-1.786;2023-11-21T11:12:12;12.40;99.90
16976;DHT22;8604;48.148;-1.786;2023-11-21T11:14:41;12.40;99.90
16976;DHT22;8604;48.148;-1.786;2023-11-21T11:17:13;12.40;99.90
16976;DHT22;8604;48.148;-1.786;2023-11-21T11:19:43;12.50;99.90
16976;DHT22;8604;48.148;-1.786;2023-11-21T11:22:36;12.50;99.90
16976;DHT22;8604;48.148;-1.786;2023-11-21T11:25:32;12.60;99.90
16976;DHT22;8604;48.148;-1.786;2023-11-21T11:28:08;12.60;99.90
16976;DHT22;8604;48.148;-1.786;2023-11-21T11:30:46;12.60;99.90
16976;DHT22;8604;48.148;-1.786;2023-11-21T11:33:25;12.70;99.90
16976;DHT22;8604;48.148;-1.786;2023-11-21T11:36:06;12.70;99.90
16976;DHT22;8604;48.148;-1.786;2023-11-21T11:38:37;12.80;99.90
16976;DHT22;8604;48.148;-1.786;2023-11-21T11:41:07;12.80;99.90
16976;DHT22;8604;48.148;-1.786;2023-11-21T11:43:38;12.90;99.90
16976;DHT22;8604;48.148;-1.786;2023-11-21T11:46:12;12.90;99.90
16976;DHT22;8604;48.148;-1.786;2023-11-21T11:48:42;13.00;99.90
16976;DHT22;8604;48.148;-1.786;2023-11-21T11:51:14;13.00;99.90
16976;DHT22;8604;48.148;-1.786;2023-11-21T11:53:46;13.00;99.90
16976;DHT22;8604;48.148;-1.786;2023-11-21T11:56:27;13.10;99.90
16976;DHT22;8604;48.148;-1.786;2023-11-21T11:59:03;13.10;99.90
16976;DHT22;8604;48.148;-1.786;2023-11-21T12:01:34;13.10;99.90
16976;DHT22;8604;48.148;-1.786;2023-11-21T12:04:25;13.00;99.90
16976;DHT22;8604;48.148;-1.786;2023-11-21T12:07:02;13.00;99.90
16976;DHT22;8604;48.148;-1.786;2023-11-21T12:09:32;13.00;99.90
16976;DHT22;8604;48.148;-1.786;2023-11-21T12:12:02;13.10;99.90
16976;DHT22;8604;48.148;-1.786;2023-11-21T12:14:33;13.10;99.90
16976;DHT22;8604;48.148;-1.786;2023-11-21T12:17:01;13.10;99.90
16976;DHT22;8604;48.148;-1.786;2023-11-21T12:19:32;13.10;99.90
16976;DHT22;8604;48.148;-1.786;2023-11-21T12:22:00;13.10;99.90
16976;DHT22;8604;48.148;-1.786;2023-11-21T12:24:29;13.10;99.90
16976;DHT22;8604;48.148;-1.786;2023-11-21T12:26:58;13.10;99.90
16976;DHT22;8604;48.148;-1.786;2023-11-21T12:29:27;13.10;99.90
16976;DHT22;8604;48.148;-1.786;2023-11-21T12:31:58;13.00;99.90
16976;DHT22;8604;48.148;-1.786;2023-11-21T12:34:27;13.10;99.90
16976;DHT22;8604;48.148;-1.786;2023-11-21T12:36:57;13.00;99.90
16976;DHT22;8604;48.148;-1.786;2023-11-21T12:39:26;13.00;99.90
16976;DHT22;8604;48.148;-1.786;2023-11-21T12:41:56;12.90;99.90
16976;DHT22;8604;48.148;-1.786;2023-11-21T12:44:25;12.90;99.90
16976;DHT22;8604;48.148;-1.786;2023-11-21T12:46:54;12.90;99.90
16976;DHT22;8604;48.148;-1.786;2023-11-21T12:49:24;12.80;99.90
16976;DHT22;8604;48.148;-1.786;2023-11-21T12:51:53;12.80;99.90
16976;DHT22;8604;48.148;-1.786;2023-11-21T12:54:21;12.70;99.90
16976;DHT22;8604;48.148;-1.786;2023-11-21T12:56:51;12.70;99.90
16976;DHT22;8604;48.148;-1.786;2023-11-21T12:59:20;12.70;99.90
16976;DHT22;8604;48.148;-1.786;2023-11-21T13:01:49;12.70;99.90
16976;DHT22;8604;48.148;-1.786;2023-11-21T13:04:19;12.70;99.90
16976;DHT22;8604;48.148;-1.786;2023-11-21T13:06:49;12.80;99.90
16976;DHT22;8604;48.148;-1.786;2023-11-21T13:09:18;12.80;99.90
16976;DHT22;8604;48.148;-1.786;2023-11-21T13:11:49;12.70;99.90
16976;DHT22;8604;48.148;-1.786;2023-11-21T13:14:29;12.70;99.90
16976;DHT22;8604;48.148;-1.786;2023-11-21T13:16:59;12.60;99.90
16976;DHT22;8604;48.148;-1.786;2023-11-21T13:19:28;12.60;99.90
16976;DHT22;8604;48.148;-1.786;2023-11-21T13:21:59;12.60;99.90
16976;DHT22;8604;48.148;-1.786;2023-11-21T13:24:31;12.60;99.90
16976;DHT22;8604;48.148;-1.786;2023-11-21T13:27:00;12.60;99.90
16976;DHT22;8604;48.148;-1.786;2023-11-21T13:29:28;12.60;99.90
16976;DHT22;8604;48.148;-1.786;2023-11-21T13:31:57;12.60;99.90
16976;DHT22;8604;48.148;-1.786;2023-11-21T13:34:26;12.60;99.90
16976;DHT22;8604;48.148;-1.786;2023-11-21T13:37:02;12.50;99.90
16976;DHT22;8604;48.148;-1.786;2023-11-21T13:39:34;12.40;99.90
16976;DHT22;8604;48.148;-1.786;2023-11-21T13:42:05;12.40;99.90
16976;DHT22;8604;48.148;-1.786;2023-11-21T13:44:34;12.40;99.90
16976;DHT22;8604;48.148;-1.786;2023-11-21T13:47:05;12.40;99.90
16976;DHT22;8604;48.148;-1.786;2023-11-21T13:49:35;12.30;99.90
16976;DHT22;8604;48.148;-1.786;2023-11-21T13:52:11;12.30;99.90
16976;DHT22;8604;48.148;-1.786;2023-11-21T13:54:45;12.40;99.90
16976;DHT22;8604;48.148;-1.786;2023-11-21T13:57:20;12.30;99.90
16976;DHT22;8604;48.148;-1.786;2023-11-21T13:59:50;12.30;99.90
16976;DHT22;8604;48.148;-1.786;2023-11-21T14:02:30;12.40;99.90
16976;DHT22;8604;48.148;-1.786;2023-11-21T14:05:08;12.40;99.90
16976;DHT22;8604;48.148;-1.786;2023-11-21T14:07:40;12.40;99.90
16976;DHT22;8604;48.148;-1.786;2023-11-21T14:10:17;12.40;99.90
16976;DHT22;8604;48.148;-1.786;2023-11-21T14:12:49;12.40;99.90
16976;DHT22;8604;48.148;-1.786;2023-11-21T14:15:18;12.40;99.90
16976;DHT22;8604;48.148;-1.786;2023-11-21T14:17:47;12.30;99.90
16976;DHT22;8604;48.148;-1.786;2023-11-21T14:20:17;12.30;99.90
16976;DHT22;8604;48.148;-1.786;2023-11-21T14:22:50;12.20;99.90
16976;DHT22;8604;48.148;-1.786;2023-11-21T14:25:19;12.20;99.90
16976;DHT22;8604;48.148;-1.786;2023-11-21T14:27:49;12.20;99.90
16976;DHT22;8604;48.148;-1.786;2023-11-21T14:30:18;12.10;99.90
16976;DHT22;8604;48.148;-1.786;2023-11-21T14:32:49;12.10;99.90
16976;DHT22;8604;48.148;-1.786;2023-11-21T14:35:18;12.10;99.90
16976;DHT22;8604;48.148;-1.786;2023-11-21T14:37:47;12.10;99.90
16976;DHT22;8604;48.148;-1.786;2023-11-21T14:40:30;12.10;99.90
16976;DHT22;8604;48.148;-1.786;2023-11-21T14:43:00;12.10;99.90
16976;DHT22;8604;48.148;-1.786;2023-11-21T14:45:29;12.00;99.90
16976;DHT22;8604;48.148;-1.786;2023-11-21T14:47:58;12.00;99.90
16976;DHT22;8604;48.148;-1.786;2023-11-21T14:50:34;12.00;99.90
16976;DHT22;8604;48.148;-1.786;2023-11-21T14:53:14;12.00;99.90
16976;DHT22;8604;48.148;-1.786;2023-11-21T14:55:44;12.00;99.90
16976;DHT22;8604;48.148;-1.786;2023-11-21T14:58:24;12.00;99.90
16976;DHT22;8604;48.148;-1.786;2023-11-21T15:00:56;11.90;99.90
16976;DHT22;8604;48.148;-1.786;2023-11-21T15:03:28;11.80;99.90
16976;DHT22;8604;48.148;-1.786;2023-11-21T15:06:11;11.80;99.90
16976;DHT22;8604;48.148;-1.786;2023-11-21T15:08:55;11.80;99.90
16976;DHT22;8604;48.148;-1.786;2023-11-21T15:11:46;11.70;99.90
16976;DHT22;8604;48.148;-1.786;2023-11-21T15:14:15;11.80;99.90
16976;DHT22;8604;48.148;-1.786;2023-11-21T15:16:50;11.70;99.90
16976;DHT22;8604;48.148;-1.786;2023-11-21T15:19:21;11.70;99.90
16976;DHT22;8604;48.148;-1.786;2023-11-21T15:21:53;11.70;99.90
16976;DHT22;8604;48.148;-1.786;2023-11-21T15:24:22;11.70;99.90
16976;DHT22;8604;48.148;-1.786;2023-11-21T15:26:52;11.60;99.90
16976;DHT22;8604;48.148;-1.786;2023-11-21T15:29:20;11.60;99.90
16976;DHT22;8604;48.148;-1.786;2023-11-21T15:32:01;11.60;99.90
16976;DHT22;8604;48.148;-1.786;2023-11-21T15:34:32;11.60;99.90
16976;DHT22;8604;48.148;-1.786;2023-11-21T15:37:15;11.50;99.90
16976;DHT22;8604;48.148;-1.786;2023-11-21T15:39:44;11.50;99.90
16976;DHT22;8604;48.148;-1.786;2023-11-21T15:42:14;11.50;99.90
16976;DHT22;8604;48.148;-1.786;2023-11-21T15:44:43;11.50;99.90
16976;DHT22;8604;48.148;-1.786;2023-11-21T15:47:12;11.50;99.90
16976;DHT22;8604;48.148;-1.786;2023-11-21T15:49:41;11.40;99.90
16976;DHT22;8604;48.148;-1.786;2023-11-21T15:52:09;11.40;99.90
16976;DHT22;8604;48.148;-1.786;2023-11-21T15:54:39;11.40;99.90
16976;DHT22;8604;48.148;-1.786;2023-11-21T15:57:08;11.30;99.90
16976;DHT22;8604;48.148;-1.786;2023-11-21T15:59:39;11.30;99.90
16976;DHT22;8604;48.148;-1.786;2023-11-21T16:02:10;11.30;99.90